Time;durP1;ratioP1;P1;durP2;ratioP2;P2;SDS_P1;SDS_P2;PMS_P1;PMS_P2;Temp;Humidity;BMP_temperature;BMP_pressure;BME280_temperature;BME280_humidity;BME280_pressure;Samples;Min_cycle;Max_cycle;Signal;HPM_P1;HPM_P2
2022/06/14 00:03:02;;;;;;;1.60;1.50;;;16.50;1.00;;;;;;5043318;28;20573;-59
2022/06/14 00:05:28;;;;;;;4.43;1.70;;;16.40;1.00;;;;;;5043107;28;20428;-59
2022/06/14 00:07:53;;;;;;;1.90;1.53;;;16.40;1.00;;;;;;5042730;28;20447;-59
2022/06/14 00:10:19;;;;;;;2.43;1.60;;;16.40;1.00;;;;;;5044989;28;20274;-59
2022/06/14 00:12:45;;;;;;;2.80;2.00;;;16.30;1.00;;;;;;5040963;28;20272;-60
2022/06/14 00:15:11;;;;;;;1.90;1.43;;;16.30;1.00;;;;;;5045710;28;20184;-59
2022/06/14 00:17:36;;;;;;;2.03;1.83;;;16.10;1.00;;;;;;5045175;28;20691;-60
2022/06/14 00:20:03;;;;;;;2.40;1.90;;;16.10;1.00;;;;;;5045510;28;20550;-59
2022/06/14 00:22:29;;;;;;;3.77;1.57;;;16.10;1.00;;;;;;5047760;28;20202;-59
2022/06/14 00:24:55;;;;;;;3.80;1.60;;;16.10;1.00;;;;;;5044554;28;20481;-59
2022/06/14 00:27:21;;;;;;;2.17;1.60;;;16.10;1.00;;;;;;5045207;28;20210;-59
2022/06/14 00:29:47;;;;;;;4.10;1.97;;;16.00;1.00;;;;;;5041740;28;20455;-60
2022/06/14 00:32:14;;;;;;;2.33;1.70;;;16.00;1.00;;;;;;5038287;28;20289;-59
2022/06/14 00:34:39;;;;;;;2.27;1.60;;;16.00;1.00;;;;;;5047869;28;20188;-59
2022/06/14 00:37:05;;;;;;;2.00;1.80;;;16.10;1.00;;;;;;5037345;28;21201;-60
2022/06/14 00:39:30;;;;;;;3.37;1.80;;;16.00;1.00;;;;;;5043682;28;20280;-60
2022/06/14 00:41:56;;;;;;;1.67;1.57;;;16.00;1.00;;;;;;5041775;28;20196;-60
2022/06/14 00:44:25;;;;;;;2.20;1.50;;;15.90;1.00;;;;;;5045902;28;20180;-59
2022/06/14 00:47:03;;;;;;;2.27;1.40;;;15.90;1.00;;;;;;5042787;28;20482;-58
2022/06/14 00:49:52;;;;;;;1.93;1.43;;;15.90;1.00;;;;;;5044945;28;20535;-58
2022/06/14 00:52:31;;;;;;;3.80;1.80;;;15.60;1.00;;;;;;5048471;28;20435;-59
2022/06/14 00:55:30;;;;;;;2.47;2.00;;;15.60;1.00;;;;;;5048678;28;20438;-59
2022/06/14 00:58:13;;;;;;;3.10;1.77;;;15.70;1.00;;;;;;5047802;28;20969;-60
2022/06/14 01:00:51;;;;;;;1.70;1.57;;;15.70;1.00;;;;;;5049570;28;20417;-59
2022/06/14 01:03:21;;;;;;;3.33;1.80;;;15.60;1.00;;;;;;5050123;28;20446;-58
2022/06/14 01:06:15;;;;;;;2.53;1.60;;;15.60;1.00;;;;;;5050169;28;20510;-59
2022/06/14 01:08:46;;;;;;;2.10;1.40;;;15.60;1.00;;;;;;5048748;28;20476;-59
2022/06/14 01:11:20;;;;;;;2.97;2.17;;;15.60;1.00;;;;;;5049062;28;20529;-59
2022/06/14 01:13:46;;;;;;;3.20;1.90;;;15.60;1.00;;;;;;5048600;28;20569;-59
2022/06/14 01:16:12;;;;;;;1.73;1.40;;;15.50;1.00;;;;;;5048278;28;20557;-59
2022/06/14 01:18:39;;;;;;;2.07;1.33;;;15.30;1.00;;;;;;5050474;28;20200;-58
2022/06/14 01:21:08;;;;;;;4.43;1.87;;;15.30;1.00;;;;;;5045182;28;20944;-59
2022/06/14 01:23:34;;;;;;;1.83;1.67;;;15.30;1.00;;;;;;5051201;28;20525;-60
2022/06/14 01:26:08;;;;;;;3.53;1.63;;;15.30;1.00;;;;;;5045921;28;20687;-60
2022/06/14 01:28:34;;;;;;;1.80;1.40;;;15.20;1.00;;;;;;5054011;28;20179;-60
2022/06/14 01:30:59;;;;;;;2.77;1.40;;;15.30;1.00;;;;;;5050344;28;20513;-60
2022/06/14 01:33:33;;;;;;;2.00;1.60;;;15.30;1.00;;;;;;5049699;28;20955;-59
2022/06/14 01:36:05;;;;;;;3.47;1.33;;;15.30;1.00;;;;;;5048890;28;20203;-59
2022/06/14 01:38:31;;;;;;;2.93;1.10;;;15.20;1.00;;;;;;5048627;28;20453;-59
2022/06/14 01:41:19;;;;;;;3.27;1.50;;;15.20;1.00;;;;;;5047451;28;20462;-59
2022/06/14 01:44:06;;;;;;;3.60;1.27;;;14.60;1.00;;;;;;5050615;28;20242;-58
2022/06/14 01:46:46;;;;;;;2.43;1.40;;;15.10;1.00;;;;;;5048631;28;20444;-60
2022/06/14 01:52:51;;;;;;;1.97;1.60;;;15.00;1.00;;;;;;5048982;28;20445;-59
2022/06/14 01:55:35;;;;;;;2.40;1.50;;;14.90;1.00;;;;;;5050956;28;20443;-59
2022/06/14 01:58:26;;;;;;;3.73;1.57;;;14.90;1.00;;;;;;5049231;28;20496;-59
2022/06/14 02:01:30;;;;;;;1.60;1.43;;;14.90;1.00;;;;;;5049235;28;20442;-59
2022/06/14 02:07:05;;;;;;;1.77;1.53;;;14.90;1.00;;;;;;5048115;28;20513;-59
2022/06/14 02:09:52;;;;;;;2.17;1.43;;;15.00;1.00;;;;;;5049387;28;20497;-59
2022/06/14 02:12:30;;;;;;;3.17;1.87;;;15.00;1.00;;;;;;5047972;28;20414;-59
2022/06/14 02:15:16;;;;;;;3.20;1.70;;;15.00;1.00;;;;;;5046605;28;20485;-59
2022/06/14 02:17:48;;;;;;;3.20;1.40;;;15.10;1.00;;;;;;5046843;28;20482;-59
2022/06/14 02:20:20;;;;;;;7.33;2.00;;;15.10;1.00;;;;;;5046109;28;20797;-58
2022/06/14 02:22:52;;;;;;;3.30;1.63;;;15.20;1.00;;;;;;5046009;28;20476;-60
2022/06/14 02:25:23;;;;;;;3.00;1.60;;;17.10;1.00;;;;;;5049534;28;20857;-61
2022/06/14 02:27:55;;;;;;;3.77;1.57;;;15.10;1.00;;;;;;5046470;28;20513;-59
2022/06/14 02:30:28;;;;;;;2.77;1.47;;;15.10;1.00;;;;;;5048014;28;20952;-59
2022/06/14 02:33:28;;;;;;;3.07;1.50;;;15.20;1.00;;;;;;5045982;28;20504;-60
2022/06/14 02:36:08;;;;;;;3.20;1.50;;;15.10;1.00;;;;;;5040872;28;20541;-59
2022/06/14 02:39:08;;;;;;;4.67;2.17;;;15.10;1.00;;;;;;5048363;28;20477;-59
2022/06/14 02:41:52;;;;;;;5.03;1.60;;;15.00;1.00;;;;;;5033825;28;20943;-60
2022/06/14 02:44:30;;;;;;;3.30;1.30;;;15.00;1.00;;;;;;5046693;28;20810;-59
2022/06/14 02:47:09;;;;;;;3.37;1.97;;;15.10;1.00;;;;;;5049754;28;20506;-59
2022/06/14 02:49:45;;;;;;;2.93;2.13;;;15.00;1.00;;;;;;5046884;28;20477;-59
2022/06/14 02:52:21;;;;;;;4.03;1.77;;;15.00;1.00;;;;;;5045694;28;20520;-59
2022/06/14 02:54:57;;;;;;;1.77;1.63;;;15.00;1.00;;;;;;5047475;28;20484;-59
2022/06/14 02:57:55;;;;;;;3.53;2.27;;;16.00;1.00;;;;;;5048267;28;21099;-59
2022/06/14 03:00:32;;;;;;;2.00;1.73;;;14.90;1.00;;;;;;5045019;28;20499;-59
2022/06/14 03:03:06;;;;;;;5.63;2.00;;;14.90;1.00;;;;;;5048719;28;20458;-59
2022/06/14 03:05:42;;;;;;;2.07;1.70;;;14.90;1.00;;;;;;5047170;28;20445;-60
2022/06/14 03:08:31;;;;;;;2.07;1.80;;;14.90;1.00;;;;;;5045896;28;20842;-59
2022/06/14 03:11:15;;;;;;;2.90;2.30;;;14.90;1.00;;;;;;5043534;28;20504;-58
2022/06/14 03:14:10;;;;;;;2.97;2.30;;;14.90;1.00;;;;;;5046617;28;20434;-58
2022/06/14 03:16:42;;;;;;;2.87;2.03;;;14.90;1.00;;;;;;5046059;28;21019;-59
2022/06/14 03:19:34;;;;;;;1.80;1.70;;;14.90;1.00;;;;;;5047851;28;20501;-59
2022/06/14 03:22:19;;;;;;;4.97;1.80;;;15.10;1.00;;;;;;5043282;28;20458;-59
2022/06/14 03:24:49;;;;;;;3.80;1.80;;;15.10;1.00;;;;;;5042576;28;20450;-60
2022/06/14 03:27:26;;;;;;;5.20;2.13;;;15.00;1.00;;;;;;5048401;28;20469;-58
2022/06/14 03:29:55;;;;;;;5.17;2.40;;;15.00;1.00;;;;;;5047535;28;20871;-60
2022/06/14 03:32:32;;;;;;;2.93;1.53;;;15.10;1.00;;;;;;5053251;28;20439;-60
2022/06/14 03:35:24;;;;;;;3.83;2.30;;;15.20;1.00;;;;;;5049347;28;20442;-60
2022/06/14 03:37:49;;;;;;;8.10;3.40;;;15.20;1.00;;;;;;5047144;28;20540;-61
2022/06/14 03:40:18;;;;;;;6.13;1.80;;;15.20;1.00;;;;;;5057219;28;20481;-61
2022/06/14 03:42:44;;;;;;;3.33;1.67;;;15.20;1.00;;;;;;5054937;28;20180;-60
2022/06/14 03:45:15;;;;;;;5.13;1.80;;;15.20;1.00;;;;;;5063609;28;20439;-60
2022/06/14 03:47:41;;;;;;;3.20;1.53;;;15.30;1.00;;;;;;5049796;28;20203;-60
2022/06/14 03:50:14;;;;;;;3.03;1.83;;;15.20;1.00;;;;;;5048909;28;20470;-60
2022/06/14 03:52:45;;;;;;;1.87;1.47;;;15.20;1.00;;;;;;5051344;28;20191;-61
2022/06/14 03:55:38;;;;;;;3.60;2.60;;;15.20;1.00;;;;;;5053487;28;20939;-59
2022/06/14 03:58:19;;;;;;;4.37;1.87;;;15.10;1.00;;;;;;5055650;28;20466;-58
2022/06/14 04:00:52;;;;;;;11.70;8.47;;;15.20;1.00;;;;;;5046555;28;20476;-57
2022/06/14 04:03:21;;;;;;;4.40;1.60;;;15.20;1.00;;;;;;5047124;28;20466;-60
2022/06/14 04:06:09;;;;;;;1.90;1.70;;;15.20;1.00;;;;;;5048735;28;20782;-58
2022/06/14 04:08:47;;;;;;;2.33;2.13;;;15.20;1.00;;;;;;5052057;28;20453;-58
2022/06/14 04:11:42;;;;;;;3.47;1.67;;;15.20;1.00;;;;;;5048313;28;20942;-57
2022/06/14 04:14:26;;;;;;;2.57;1.60;;;15.20;1.00;;;;;;5048425;28;20489;-57
2022/06/14 04:17:31;;;;;;;5.00;2.20;;;15.30;1.00;;;;;;5047655;28;20442;-56
2022/06/14 04:20:20;;;;;;;3.40;1.57;;;15.40;1.00;;;;;;5045012;28;21492;-57
2022/06/14 04:22:54;;;;;;;4.37;1.40;;;15.50;1.00;;;;;;5045422;28;20523;-57
2022/06/14 04:25:23;;;;;;;3.40;1.60;;;15.50;1.00;;;;;;5045785;28;20496;-58
2022/06/14 04:28:14;;;;;;;2.50;1.37;;;15.40;1.00;;;;;;5044767;28;20474;-57
2022/06/14 04:30:53;;;;;;;5.23;1.50;;;15.60;1.00;;;;;;5045998;28;20458;-58
2022/06/14 04:33:46;;;;;;;2.10;1.77;;;15.70;1.00;;;;;;5048308;28;20441;-57
2022/06/14 04:36:21;;;;;;;2.23;1.57;;;15.70;1.00;;;;;;5047167;28;20455;-60
2022/06/14 04:39:15;;;;;;;6.50;2.10;;;15.90;1.00;;;;;;5055622;28;20789;-57
2022/06/14 04:42:04;;;;;;;2.20;1.60;;;16.00;1.00;;;;;;5046408;28;20450;-59
2022/06/14 04:44:53;;;;;;;2.60;1.90;;;16.10;1.00;;;;;;5043986;28;20481;-58
2022/06/14 04:47:29;;;;;;;3.73;1.60;;;16.10;1.00;;;;;;5038162;28;20470;-58
2022/06/14 04:50:11;;;;;;;2.60;1.67;;;16.30;1.00;;;;;;5041871;28;20551;-58
2022/06/14 04:52:43;;;;;;;6.33;1.90;;;16.50;1.00;;;;;;5043212;28;20457;-59
2022/06/14 04:55:35;;;;;;;6.40;1.80;;;16.50;1.00;;;;;;5053528;28;20451;-58
2022/06/14 04:58:03;;;;;;;3.60;1.53;;;16.40;1.00;;;;;;5057288;28;20923;-58
2022/06/14 05:00:34;;;;;;;4.77;1.90;;;16.40;1.00;;;;;;5049407;28;20525;-59
2022/06/14 05:03:30;;;;;;;4.60;1.90;;;16.30;1.00;;;;;;5045296;28;20449;-60
2022/06/14 05:06:12;;;;;;;3.27;1.57;;;16.30;1.00;;;;;;5064653;28;20983;-58
2022/06/14 05:08:54;;;;;;;5.03;1.60;;;16.30;1.00;;;;;;5049575;28;20529;-59
2022/06/14 05:11:28;;;;;;;4.73;1.60;;;16.40;1.00;;;;;;5060783;28;20466;-58
2022/06/14 05:14:05;;;;;;;2.97;1.60;;;16.40;1.00;;;;;;5069541;28;20756;-59
2022/06/14 05:16:40;;;;;;;1.67;1.50;;;17.40;1.00;;;;;;5058687;28;20437;-58
2022/06/14 05:19:50;;;;;;;4.30;1.63;;;16.30;1.00;;;;;;5049394;28;20808;-59
2022/06/14 05:22:33;;;;;;;3.47;1.47;;;16.60;1.00;;;;;;5025788;28;20542;-59
2022/06/14 05:25:00;;;;;;;1.43;1.33;;;16.50;1.00;;;;;;5048354;28;20442;-59
2022/06/14 05:27:44;;;;;;;2.87;1.43;;;16.60;1.00;;;;;;5049057;28;20473;-58
2022/06/14 05:30:18;;;;;;;2.93;1.40;;;16.60;1.00;;;;;;5048789;28;20430;-59
2022/06/14 05:33:07;;;;;;;3.07;1.90;;;16.50;1.00;;;;;;5049054;28;20987;-59
2022/06/14 05:35:44;;;;;;;2.93;1.30;;;16.60;1.00;;;;;;5049045;28;20724;-58
2022/06/14 05:38:33;;;;;;;10.80;2.50;;;16.80;1.00;;;;;;5051282;28;20943;-59
2022/06/14 05:41:32;;;;;;;6.13;1.83;;;17.00;1.00;;;;;;5052724;28;20418;-57
2022/06/14 05:44:08;;;;;;;4.20;1.90;;;17.20;1.00;;;;;;5045610;28;20453;-59
2022/06/14 05:46:42;;;;;;;4.00;1.80;;;17.30;1.00;;;;;;5051868;28;20480;-59
2022/06/14 05:49:16;;;;;;;3.47;1.53;;;17.30;1.00;;;;;;5052576;28;20774;-59
2022/06/14 05:51:45;;;;;;;2.80;1.77;;;16.40;1.00;;;;;;5052837;28;20476;-59
2022/06/14 05:54:19;;;;;;;2.63;1.70;;;17.20;1.00;;;;;;5052442;28;20572;-59
2022/06/14 05:56:55;;;;;;;3.30;1.77;;;17.20;1.00;;;;;;5050994;28;20473;-57
2022/06/14 06:00:02;;;;;;;3.80;2.00;;;17.50;1.00;;;;;;5051962;28;20454;-58
2022/06/14 06:02:33;;;;;;;3.83;2.13;;;17.50;1.00;;;;;;5048418;28;20463;-59
2022/06/14 06:05:08;;;;;;;3.53;1.67;;;17.70;1.00;;;;;;5052748;28;20461;-59
2022/06/14 06:07:38;;;;;;;3.17;1.40;;;17.70;1.00;;;;;;5057949;28;20520;-59
2022/06/14 06:10:19;;;;;;;2.17;1.47;;;18.00;1.00;;;;;;5052667;28;20461;-58
2022/06/14 06:12:52;;;;;;;5.03;1.57;;;18.00;1.00;;;;;;5052407;28;20435;-60
2022/06/14 06:15:33;;;;;;;4.47;2.13;;;18.30;1.00;;;;;;5052280;28;20431;-60
2022/06/14 06:18:06;;;;;;;3.73;1.80;;;18.40;1.00;;;;;;5052013;28;20515;-59
2022/06/14 06:21:05;;;;;;;5.47;2.03;;;18.10;1.00;;;;;;5051743;28;20800;-57
2022/06/14 06:23:54;;;;;;;10.03;1.53;;;18.10;1.00;;;;;;5052275;28;20445;-59
2022/06/14 06:26:22;;;;;;;2.70;1.50;;;18.10;1.00;;;;;;5049425;28;20489;-59
2022/06/14 06:29:18;;;;;;;4.23;1.50;;;17.90;1.00;;;;;;5052080;28;20430;-59
2022/06/14 06:31:46;;;;;;;5.67;1.77;;;17.70;1.00;;;;;;5051697;28;20526;-59
2022/06/14 06:34:14;;;;;;;4.97;1.67;;;18.00;1.00;;;;;;5051717;28;20439;-58
2022/06/14 06:37:01;;;;;;;3.70;2.23;;;18.00;1.00;;;;;;5052131;28;20836;-58
2022/06/14 06:40:02;;;;;;;3.40;1.80;;;18.00;1.00;;;;;;5052237;28;20452;-60
2022/06/14 06:42:36;;;;;;;4.50;1.83;;;18.30;1.00;;;;;;5042985;28;20446;-57
2022/06/14 06:45:02;;;;;;;2.90;2.00;;;;;;;;;;5051570;28;20427;-58
2022/06/14 06:47:36;;;;;;;6.97;2.20;;;18.10;1.00;;;;;;5051591;28;20476;-57
2022/06/14 06:50:14;;;;;;;4.03;1.37;;;18.10;1.00;;;;;;5051241;28;20466;-57
2022/06/14 06:52:43;;;;;;;6.10;1.77;;;;;;;;;;5051253;28;20442;-59
2022/06/14 06:55:26;;;;;;;4.30;1.63;;;18.20;1.00;;;;;;5051421;28;20541;-59
2022/06/14 06:57:55;;;;;;;6.23;1.67;;;18.30;1.00;;;;;;5051496;28;20458;-59
2022/06/14 07:00:22;;;;;;;2.97;1.50;;;18.50;1.00;;;;;;5051706;28;20454;-58
2022/06/14 07:02:53;;;;;;;4.80;1.80;;;18.80;1.00;;;;;;5051352;28;20424;-59
2022/06/14 07:05:19;;;;;;;4.27;1.53;;;18.80;1.00;;;;;;5052755;28;20796;-60
2022/06/14 07:08:00;;;;;;;4.93;1.63;;;18.80;1.00;;;;;;5051246;28;20458;-60
2022/06/14 07:10:38;;;;;;;5.70;1.80;;;18.90;1.00;;;;;;5054527;28;20183;-58
2022/06/14 07:13:27;;;;;;;4.63;1.43;;;18.90;1.00;;;;;;5070879;28;20487;-58
2022/06/14 07:16:09;;;;;;;3.20;1.43;;;19.10;1.00;;;;;;5071238;28;20863;-59
2022/06/14 07:18:53;;;;;;;3.50;1.77;;;19.30;1.00;;;;;;5069870;28;20441;-59
2022/06/14 07:21:27;;;;;;;3.73;1.70;;;19.00;1.00;;;;;;5070769;28;20425;-59
2022/06/14 07:24:25;;;;;;;3.23;1.50;;;18.70;1.00;;;;;;5069339;28;20460;-58
2022/06/14 07:27:01;;;;;;;3.60;1.90;;;18.50;1.00;;;;;;5068666;28;21000;-59
2022/06/14 07:29:40;;;;;;;4.10;1.73;;;18.90;1.00;;;;;;5070964;28;20437;-59
2022/06/14 07:32:30;;;;;;;5.13;1.57;;;19.20;1.00;;;;;;5071005;28;20972;-58
2022/06/14 07:34:59;;;;;;;4.13;1.40;;;19.10;1.00;;;;;;5057237;28;20434;-58
2022/06/14 07:37:42;;;;;;;1.83;1.40;;;19.10;1.00;;;;;;5050058;28;20446;-58
2022/06/14 07:40:14;;;;;;;4.40;1.10;;;19.80;1.00;;;;;;5050743;28;20560;-59
2022/06/14 07:42:47;;;;;;;3.30;1.30;;;19.80;1.00;;;;;;5050859;28;20496;-60
2022/06/14 07:45:15;;;;;;;3.20;1.30;;;19.70;1.00;;;;;;5048798;28;20417;-59
2022/06/14 07:47:53;;;;;;;2.83;1.20;;;19.70;1.00;;;;;;5053845;28;20548;-58
2022/06/14 07:50:47;;;;;;;5.10;1.60;;;19.30;1.00;;;;;;5048069;28;20470;-57
2022/06/14 07:53:21;;;;;;;6.63;1.70;;;19.30;1.00;;;;;;5041948;28;20446;-58
2022/06/14 07:56:19;;;;;;;3.17;1.37;;;19.40;1.00;;;;;;5049312;28;20454;-58
2022/06/14 07:58:51;;;;;;;2.90;1.30;;;19.40;1.00;;;;;;5046047;28;20445;-59
2022/06/14 08:01:43;;;;;;;2.17;1.20;;;19.60;1.00;;;;;;5050098;28;20439;-58
2022/06/14 08:04:30;;;;;;;2.87;1.50;;;19.40;1.00;;;;;;5046787;28;20443;-59
2022/06/14 08:07:03;;;;;;;3.63;1.30;;;19.30;1.00;;;;;;5050328;28;20516;-60
2022/06/14 08:10:32;;;;;;;2.63;1.40;;;19.40;1.00;;;;;;5050256;28;20963;-59
2022/06/14 08:13:02;;;;;;;3.60;1.60;;;19.30;1.00;;;;;;5018227;28;20455;-58
2022/06/14 08:15:35;;;;;;;3.53;1.40;;;19.70;1.00;;;;;;5027803;28;20420;-57
2022/06/14 08:18:09;;;;;;;3.00;1.10;;;19.60;1.00;;;;;;5043926;28;20445;-59
2022/06/14 08:20:42;;;;;;;3.97;1.40;;;19.30;1.00;;;;;;5050280;28;20799;-59
2022/06/14 08:23:26;;;;;;;5.73;1.20;;;19.60;1.00;;;;;;5050260;28;20991;-59
2022/06/14 08:25:58;;;;;;;3.77;1.90;;;19.80;1.00;;;;;;5049589;28;20563;-59
2022/06/14 08:28:28;;;;;;;5.67;1.90;;;20.10;1.00;;;;;;5049882;28;20439;-59
2022/06/14 08:31:14;;;;;;;4.40;1.60;;;20.10;1.00;;;;;;5050035;28;20496;-58
2022/06/14 08:33:54;;;;;;;2.23;1.70;;;21.10;1.00;;;;;;5049980;28;20517;-59
2022/06/14 08:36:26;;;;;;;2.73;1.63;;;20.40;1.00;;;;;;5049026;28;20442;-60
2022/06/14 08:38:58;;;;;;;3.60;2.10;;;20.50;1.00;;;;;;5049974;28;20435;-59
2022/06/14 08:41:32;;;;;;;3.53;1.57;;;21.00;1.00;;;;;;5059249;28;20530;-58
2022/06/14 08:44:06;;;;;;;2.17;1.90;;;21.00;1.00;;;;;;5069749;28;20502;-58
2022/06/14 08:46:42;;;;;;;4.80;1.80;;;21.10;1.00;;;;;;5065302;28;20810;-59
2022/06/14 08:49:28;;;;;;;2.70;1.53;;;21.40;1.00;;;;;;5049718;28;20434;-57
2022/06/14 08:51:59;;;;;;;5.80;2.70;;;20.70;1.00;;;;;;5049752;28;20838;-58
2022/06/14 08:55:03;;;;;;;5.53;1.63;;;20.70;1.00;;;;;;5060847;28;20425;-58
2022/06/14 08:57:39;;;;;;;9.33;2.37;;;20.60;1.00;;;;;;5051264;28;20473;-59
2022/06/14 09:00:08;;;;;;;7.03;1.50;;;20.70;1.00;;;;;;5049728;28;20464;-60
2022/06/14 09:02:57;;;;;;;4.73;1.80;;;20.60;1.00;;;;;;5049868;28;20444;-59
2022/06/14 09:05:57;;;;;;;4.90;2.17;;;21.00;1.00;;;;;;5049762;28;20437;-59
2022/06/14 09:08:40;;;;;;;3.10;1.80;;;21.30;1.00;;;;;;5049686;28;20812;-59
2022/06/14 09:11:18;;;;;;;3.70;1.90;;;21.20;1.00;;;;;;5049545;28;20430;-59
2022/06/14 09:14:09;;;;;;;4.60;1.67;;;21.20;1.00;;;;;;5052913;28;20452;-59
2022/06/14 09:17:00;;;;;;;3.30;1.90;;;21.10;1.00;;;;;;5053578;28;20502;-59
2022/06/14 09:19:25;;;;;;;4.43;2.07;;;20.70;1.00;;;;;;5049263;28;20510;-59
2022/06/14 09:22:15;;;;;;;7.07;2.53;;;20.70;1.00;;;;;;5058065;28;20412;-59
2022/06/14 09:25:03;;;;;;;5.47;2.57;;;20.70;1.00;;;;;;5073126;28;20877;-60
2022/06/14 09:27:43;;;;;;;5.67;3.57;;;20.90;1.00;;;;;;5073112;28;20773;-59
2022/06/14 09:30:43;;;;;;;6.70;2.40;;;21.20;1.00;;;;;;5052051;28;20453;-59
2022/06/14 09:33:54;;;;;;;3.30;2.37;;;20.90;1.00;;;;;;5053241;28;20407;-58
2022/06/14 09:36:32;;;;;;;5.20;2.03;;;20.30;1.00;;;;;;5052791;28;20871;-58
2022/06/14 09:39:11;;;;;;;3.57;1.83;;;19.90;1.00;;;;;;5052955;28;20430;-59
2022/06/14 09:42:07;;;;;;;4.00;2.20;;;20.50;1.00;;;;;;5053262;28;20457;-59
2022/06/14 09:44:39;;;;;;;3.23;1.63;;;21.60;1.00;;;;;;5053171;28;20439;-60
2022/06/14 09:47:13;;;;;;;4.67;1.97;;;21.60;1.00;;;;;;5052590;28;20497;-59
2022/06/14 09:50:02;;;;;;;4.40;2.23;;;21.10;1.00;;;;;;5052927;28;20989;-58
2022/06/14 09:52:49;;;;;;;2.90;2.00;;;20.90;1.00;;;;;;5051384;28;20439;-58
2022/06/14 09:55:48;;;;;;;5.00;2.17;;;21.10;1.00;;;;;;5052479;28;20435;-58
2022/06/14 09:58:29;;;;;;;6.57;1.97;;;20.90;1.00;;;;;;5052498;28;20923;-59
2022/06/14 10:01:00;;;;;;;3.40;2.20;;;20.80;1.00;;;;;;5050841;28;20438;-58
2022/06/14 10:03:52;;;;;;;5.23;2.07;;;20.30;1.00;;;;;;5052538;28;20423;-60
2022/06/14 10:06:55;;;;;;;3.70;2.10;;;20.00;1.00;;;;;;5052500;28;20435;-58
2022/06/14 10:09:54;;;;;;;5.73;1.77;;;20.00;1.00;;;;;;5052339;28;20509;-60
2022/06/14 10:12:29;;;;;;;5.50;1.83;;;20.70;1.00;;;;;;5052438;28;20526;-60
2022/06/14 10:15:12;;;;;;;4.73;2.00;;;20.90;1.00;;;;;;5063194;28;20429;-59
2022/06/14 10:18:10;;;;;;;5.03;1.80;;;21.50;1.00;;;;;;5059540;28;20473;-58
2022/06/14 10:20:49;;;;;;;5.10;2.00;;;21.50;1.00;;;;;;5037339;28;21011;-58
2022/06/14 10:23:36;;;;;;;4.87;1.93;;;21.40;1.00;;;;;;5052279;28;20438;-60
2022/06/14 10:29:36;;;;;;;5.87;1.80;;;21.10;1.00;;;;;;5052020;28;20445;-59
2022/06/14 10:32:10;;;;;;;3.10;2.23;;;20.80;1.00;;;;;;5052037;28;21001;-59
2022/06/14 10:35:05;;;;;;;6.23;2.37;;;20.30;1.00;;;;;;5051636;28;20424;-59
2022/06/14 10:37:52;;;;;;;2.90;1.57;;;20.60;1.00;;;;;;5051918;28;20438;-59
2022/06/14 10:40:30;;;;;;;4.57;1.70;;;20.70;1.00;;;;;;5051818;28;20464;-59
2022/06/14 10:43:26;;;;;;;3.90;2.03;;;21.00;1.00;;;;;;5051858;28;20434;-60
2022/06/14 10:45:57;;;;;;;4.53;1.87;;;21.70;1.00;;;;;;5051598;28;20769;-59
2022/06/14 10:48:39;;;;;;;3.47;1.87;;;21.60;1.00;;;;;;5051767;28;20466;-59
2022/06/14 10:51:29;;;;;;;6.87;2.27;;;21.40;1.00;;;;;;5051461;28;20437;-60
2022/06/14 10:54:15;;;;;;;2.30;1.63;;;21.30;1.00;;;;;;5049704;28;20466;-59
2022/06/14 10:57:19;;;;;;;4.23;1.87;;;21.50;1.00;;;;;;5051328;28;20435;-59
2022/06/14 10:59:53;;;;;;;5.70;2.87;;;21.40;1.00;;;;;;5028605;28;20839;-58
2022/06/14 11:02:22;;;;;;;4.50;1.70;;;21.30;1.00;;;;;;5046083;28;20569;-58
2022/06/14 11:05:06;;;;;;;2.70;1.50;;;21.70;1.00;;;;;;5051546;28;20430;-59
2022/06/14 11:07:37;;;;;;;2.50;1.63;;;21.70;1.00;;;;;;5050963;28;20468;-58
2022/06/14 11:10:19;;;;;;;3.50;1.73;;;21.40;1.00;;;;;;5051076;28;20420;-59
2022/06/14 11:12:47;;;;;;;3.43;1.60;;;21.60;1.00;;;;;;5051325;28;20416;-59
2022/06/14 11:15:16;;;;;;;3.17;1.60;;;21.40;1.00;;;;;;5051084;28;20479;-60
2022/06/14 11:17:56;;;;;;;3.07;1.67;;;21.30;1.00;;;;;;5051087;28;20401;-59
2022/06/14 11:20:47;;;;;;;3.83;1.80;;;21.60;1.00;;;;;;5050937;28;20413;-59
2022/06/14 11:23:27;;;;;;;4.70;1.57;;;22.10;1.00;;;;;;5047749;28;20866;-60
2022/06/14 11:26:06;;;;;;;2.77;1.80;;;22.20;1.00;;;;;;5050580;28;20445;-58
2022/06/14 11:28:50;;;;;;;2.30;1.73;;;22.00;1.00;;;;;;5050728;28;20932;-58
2022/06/14 11:31:33;;;;;;;5.60;1.97;;;22.10;1.00;;;;;;5050680;28;20866;-60
2022/06/14 11:34:26;;;;;;;3.73;1.60;;;22.10;1.00;;;;;;5050590;28;20649;-59
2022/06/14 11:37:13;;;;;;;4.60;1.83;;;21.80;1.00;;;;;;5050374;28;20463;-60
2022/06/14 11:39:44;;;;;;;3.67;2.03;;;21.70;1.00;;;;;;5050537;28;20409;-59
2022/06/14 11:42:16;;;;;;;2.90;1.70;;;21.70;1.00;;;;;;5058576;28;20438;-59
2022/06/14 11:44:49;;;;;;;3.03;1.90;;;21.80;1.00;;;;;;5070853;28;20416;-59
2022/06/14 11:47:44;;;;;;;2.80;1.57;;;21.70;1.00;;;;;;5065612;28;20444;-59
2022/06/14 11:50:32;;;;;;;5.53;1.77;;;21.40;1.00;;;;;;5050042;28;20470;-60
2022/06/14 11:53:16;;;;;;;2.70;1.60;;;21.30;1.00;;;;;;5050181;28;20470;-59
2022/06/14 11:56:18;;;;;;;6.27;1.73;;;21.70;1.00;;;;;;5050422;28;20430;-58
2022/06/14 11:59:05;;;;;;;4.80;1.73;;;22.30;1.00;;;;;;5050101;28;20441;-60
2022/06/14 12:01:50;;;;;;;3.60;1.50;;;22.40;1.00;;;;;;5050203;28;20466;-60
2022/06/14 12:04:40;;;;;;;5.03;1.93;;;22.20;1.00;;;;;;5050439;28;20401;-60
2022/06/14 12:07:25;;;;;;;5.70;1.60;;;22.20;1.00;;;;;;5049953;28;20476;-60
2022/06/14 12:10:06;;;;;;;4.30;1.97;;;21.90;1.00;;;;;;5049315;28;20428;-59
2022/06/14 12:13:11;;;;;;;3.80;2.00;;;21.40;1.00;;;;;;5050239;28;20939;-60
2022/06/14 12:15:39;;;;;;;5.20;2.17;;;21.60;1.00;;;;;;5041711;28;20538;-60
2022/06/14 12:18:08;;;;;;;3.83;1.73;;;22.00;1.00;;;;;;5049929;28;20784;-59
2022/06/14 12:20:44;;;;;;;4.43;2.00;;;22.00;1.00;;;;;;5050052;28;20437;-61
2022/06/14 12:23:15;;;;;;;4.03;1.70;;;22.00;1.00;;;;;;5049997;28;20476;-58
2022/06/14 12:29:20;;;;;;;2.43;2.07;;;21.70;1.00;;;;;;5050121;28;20437;-59
2022/06/14 12:31:54;;;;;;;6.17;2.00;;;21.90;1.00;;;;;;5049842;28;20786;-59
2022/06/14 12:34:24;;;;;;;3.63;2.13;;;21.90;1.00;;;;;;5049657;28;20578;-58
2022/06/14 12:36:53;;;;;;;2.47;1.47;;;22.00;1.00;;;;;;5049344;28;20805;-59
2022/06/14 12:39:26;;;;;;;4.93;1.90;;;21.90;1.00;;;;;;5049176;28;20438;-58
2022/06/14 12:42:04;;;;;;;4.90;1.80;;;21.90;1.00;;;;;;5049486;28;20434;-59
2022/06/14 12:44:38;;;;;;;4.77;1.70;;;21.80;1.00;;;;;;5049801;28;20430;-60
2022/06/14 12:47:11;;;;;;;3.20;1.50;;;21.80;1.00;;;;;;5049335;28;20469;-59
2022/06/14 12:49:42;;;;;;;3.27;1.93;;;21.80;1.00;;;;;;5051922;28;20433;-60
2022/06/14 12:52:16;;;;;;;3.90;1.80;;;21.70;1.00;;;;;;5063294;28;20418;-58
2022/06/14 12:55:01;;;;;;;2.70;1.80;;;21.60;1.00;;;;;;5049231;28;22183;-59
2022/06/14 12:57:36;;;;;;;2.80;1.53;;;21.60;1.00;;;;;;5049412;28;20535;-59
2022/06/14 13:00:14;;;;;;;3.20;1.60;;;21.90;1.00;;;;;;5049617;28;20420;-59
2022/06/14 13:02:48;;;;;;;3.03;1.23;;;22.20;1.00;;;;;;5049427;28;20416;-59
2022/06/14 13:05:18;;;;;;;2.50;1.50;;;22.50;1.00;;;;;;5049608;28;20417;-58
2022/06/14 13:07:59;;;;;;;5.30;1.93;;;22.90;1.00;;;;;;5049065;28;20458;-60
2022/06/14 13:10:37;;;;;;;2.97;1.57;;;23.10;1.00;;;;;;5048397;28;20564;-59
2022/06/14 13:13:46;;;;;;;2.93;1.77;;;23.00;1.00;;;;;;5049360;28;20752;-58
2022/06/14 13:16:44;;;;;;;6.20;1.70;;;22.90;1.00;;;;;;5068829;28;20434;-59
2022/06/14 13:19:33;;;;;;;4.37;1.27;;;22.60;1.00;;;;;;5069554;28;20781;-59
2022/06/14 13:22:02;;;;;;;2.87;1.80;;;22.80;1.00;;;;;;5067333;28;20438;-59
2022/06/14 13:24:43;;;;;;;3.40;1.60;;;22.80;1.00;;;;;;5047203;28;20438;-59
2022/06/14 13:27:46;;;;;;;5.23;1.40;;;22.90;1.00;;;;;;5048960;28;21007;-59
2022/06/14 13:30:20;;;;;;;4.20;2.00;;;22.90;1.00;;;;;;5049147;28;20483;-60
2022/06/14 13:33:23;;;;;;;1.73;1.47;;;23.20;1.00;;;;;;5049248;28;20420;-60
2022/06/14 13:36:23;;;;;;;4.50;1.43;;;23.50;1.00;;;;;;5049309;28;20556;-59
2022/06/14 13:38:56;;;;;;;2.70;1.30;;;23.30;1.00;;;;;;5049376;28;20438;-59
2022/06/14 13:41:28;;;;;;;3.90;1.87;;;22.90;1.00;;;;;;5049177;28;20411;-60
2022/06/14 13:43:58;;;;;;;4.80;1.50;;;22.70;1.00;;;;;;5049294;28;20955;-59
2022/06/14 13:46:30;;;;;;;2.27;1.50;;;22.40;1.00;;;;;;5049145;28;20770;-59
2022/06/14 13:49:15;;;;;;;1.83;1.40;;;22.40;1.00;;;;;;5048813;28;20431;-59
2022/06/14 13:51:56;;;;;;;2.80;1.63;;;22.60;1.00;;;;;;5048904;28;20942;-59
2022/06/14 13:54:40;;;;;;;6.23;1.50;;;22.70;1.00;;;;;;5046500;28;20437;-59
2022/06/14 13:57:34;;;;;;;3.77;1.50;;;22.60;1.00;;;;;;5048689;28;20683;-59
2022/06/14 14:00:17;;;;;;;2.57;1.90;;;22.70;1.00;;;;;;5052426;28;20446;-59
2022/06/14 14:02:50;;;;;;;6.77;1.40;;;22.60;1.00;;;;;;5052373;28;20430;-59
2022/06/14 14:05:34;;;;;;;2.37;1.17;;;22.70;1.00;;;;;;5052183;28;20916;-59
2022/06/14 14:08:27;;;;;;;3.80;2.00;;;22.60;1.00;;;;;;5052014;28;20466;-59
2022/06/14 14:11:11;;;;;;;3.30;2.40;;;22.60;1.00;;;;;;5068278;28;20442;-59
2022/06/14 14:13:58;;;;;;;2.87;1.67;;;23.70;1.00;;;;;;5050737;28;20434;-59
2022/06/14 14:16:46;;;;;;;4.83;2.10;;;24.60;1.00;;;;;;5051566;28;20426;-58
2022/06/14 14:19:50;;;;;;;2.77;1.37;;;25.40;1.00;;;;;;5058518;28;20433;-59